Back to Top

Language: 

My Weather Underground Personal Weather Station Historical Data with Graphs...

Delerius Weather Station Historical Data
 
Daily Summary for October 15, 2018 Units:  English    Metric   Both
« Previous Day
Next Day »
Daily Weekly Monthly Yearly Custom
  Current: High: Low: Average:
Temperature: 46.4 °F 46.4 °F 45.7 °F 46.1 °F
Dew Point: 45 °F 45.3 °F 43.8 °F 44.6 °F
Humidity: 95 % 96 % 93 % 94 %
Wind Speed: 2 mph 6 mph 0 mph 2.8 mph
Wind Gust: 4 mph 12 mph - -
Wind:North - - WSW
Pressure: 29.96 in 29.96 in 29.88 in -
Precipitation: 0.01 in      
Historical Graphs
 
 
Tabular Data for October 15, 2018
Time Temperature Dew Point Pressure Wind Wind Speed Wind Gust Humidity Rainfall Rate (Hourly) solar Conditions
00:04 46.2 °F 45.1 °F 29.88 in North 3 mph 7 mph 96 % 0 in 0.00 W/m2
00:09 46.2 °F 45.1 °F 29.88 in ENE 1 mph 5 mph 96 % 0 in 0.00 W/m2
00:14 46.4 °F 45.3 °F 29.88 in NE 3 mph 6 mph 96 % 0 in 0.00 W/m2
00:19 46.4 °F 45.3 °F 29.89 in North 2 mph 5 mph 96 % 0 in 0.00 W/m2
00:24 46.4 °F 45.3 °F 29.89 in NNW 1 mph 2 mph 96 % 0 in 0.00 W/m2
00:29 46.4 °F 45.3 °F 29.89 in Calm   3 mph 96 % 0 in 0.00 W/m2
00:34 46.4 °F 45.3 °F 29.89 in North 1 mph 3 mph 96 % 0 in 0.00 W/m2
00:39 46.4 °F 45.3 °F 29.89 in Calm   2 mph 96 % 0 in 0.00 W/m2
00:44 46.4 °F 45 °F 29.89 in Calm   4 mph 95 % 0 in 0.00 W/m2
00:49 46.4 °F 45 °F 29.90 in North 1 mph 4 mph 95 % 0 in 0.00 W/m2
00:54 46.4 °F 45 °F 29.90 in North 1 mph 4 mph 95 % 0 in 0.00 W/m2
00:59 46.4 °F 45 °F 29.89 in North 2 mph 5 mph 95 % 0 in 0.00 W/m2
01:04 46.4 °F 45 °F 29.90 in Calm   2 mph 95 % 0 in 0.00 W/m2
01:09 46.4 °F 45 °F 29.90 in Calm     95 % 0 in 0.00 W/m2
01:14 46.4 °F 45 °F 29.90 in Calm   1 mph 95 % 0 in 0.00 W/m2
01:19 46.4 °F 45 °F 29.90 in Calm   2 mph 95 % 0 in 0.00 W/m2
01:24 46.2 °F 44.9 °F 29.90 in Calm   1 mph 95 % 0 in 0.00 W/m2
01:29 46.2 °F 44.9 °F 29.90 in NNW 2 mph 5 mph 95 % 0 in 0.00 W/m2
01:34 46.2 °F 44.9 °F 29.90 in NNW 1 mph 4 mph 95 % 0 in 0.00 W/m2
01:39 46.2 °F 44.9 °F 29.90 in North 3 mph 8 mph 95 % 0 in 0.00 W/m2
01:44 46.2 °F 44.9 °F 29.90 in Calm   1 mph 95 % 0 in 0.00 W/m2
01:49 46.2 °F 44.9 °F 29.90 in North 1 mph 6 mph 95 % 0 in 0.00 W/m2
01:54 46.2 °F 44.9 °F 29.90 in North 3 mph 6 mph 95 % 0 in 0.00 W/m2
01:59 46.2 °F 44.9 °F 29.90 in North 2 mph 7 mph 95 % 0 in 0.00 W/m2
02:05 46.2 °F 44.9 °F 29.91 in North 1 mph 4 mph 95 % 0 in 0.00 W/m2
02:09 46.2 °F 44.9 °F 29.91 in NNW 3 mph 6 mph 95 % 0 in 0.00 W/m2
02:15 46.2 °F 44.9 °F 29.91 in NNW 3 mph 6 mph 95 % 0 in 0.00 W/m2
02:19 46.4 °F 45 °F 29.91 in NNW 2 mph 6 mph 95 % 0 in 0.00 W/m2
02:24 46.4 °F 45 °F 29.91 in North 4 mph 7 mph 95 % 0 in 0.00 W/m2
02:29 46.4 °F 45 °F 29.91 in North 4 mph 7 mph 95 % 0 in 0.00 W/m2
02:34 46.4 °F 45 °F 29.90 in NNW 3 mph 7 mph 95 % 0 in 0.00 W/m2
02:39 46.4 °F 45 °F 29.91 in North 1 mph 6 mph 95 % 0 in 0.00 W/m2
02:44 46.4 °F 44.8 °F 29.91 in NNW 3 mph 6 mph 94 % 0 in 0.00 W/m2
02:49 46.4 °F 44.8 °F 29.90 in North 5 mph 9 mph 94 % 0 in 0.00 W/m2
02:54 46.4 °F 44.8 °F 29.90 in North 4 mph 7 mph 94 % 0 in 0.00 W/m2
02:59 46.4 °F 44.8 °F 29.90 in North 3 mph 7 mph 94 % 0 in 0.00 W/m2
03:04 46.4 °F 44.8 °F 29.90 in NNE 4 mph 7 mph 94 % 0 in 0.00 W/m2
03:10 46.4 °F 44.8 °F 29.90 in North 3 mph 7 mph 94 % 0 in 0.00 W/m2
03:14 46.4 °F 44.8 °F 29.90 in NNE 1 mph 3 mph 94 % 0 in 0.00 W/m2
03:20 46.4 °F 44.8 °F 29.90 in NNE 3 mph 7 mph 94 % 0 in 0.00 W/m2
03:24 46.2 °F 44.6 °F 29.90 in North 3 mph 9 mph 94 % 0 in 0.00 W/m2
03:29 46.2 °F 44.6 °F 29.90 in North 1 mph 5 mph 94 % 0 in 0.00 W/m2
03:34 46.2 °F 44.6 °F 29.90 in North 3 mph 6 mph 94 % 0 in 0.00 W/m2
03:40 46.2 °F 44.6 °F 29.90 in North 3 mph 7 mph 94 % 0 in 0.00 W/m2
03:44 46.2 °F 44.6 °F 29.90 in NNE 3 mph 7 mph 94 % 0 in 0.00 W/m2
03:49 46.2 °F 44.6 °F 29.90 in North 4 mph 8 mph 94 % 0 in 0.00 W/m2
03:54 46 °F 44.4 °F 29.90 in NNE 2 mph 5 mph 94 % 0 in 0.00 W/m2
03:59 46 °F 44.4 °F 29.90 in North 4 mph 7 mph 94 % 0 in 0.00 W/m2
04:04 46 °F 44.4 °F 29.90 in North 4 mph 8 mph 94 % 0 in 0.00 W/m2
04:09 46 °F 44.4 °F 29.91 in NNW 3 mph 6 mph 94 % 0 in 0.00 W/m2
04:14 46 °F 44.4 °F 29.91 in Calm   4 mph 94 % 0 in 0.00 W/m2
04:19 46 °F 44.4 °F 29.91 in North 4 mph 9 mph 94 % 0 in 0.00 W/m2
04:25 46 °F 44.4 °F 29.91 in North 3 mph 7 mph 94 % 0 in 0.00 W/m2
04:29 45.9 °F 44.2 °F 29.90 in NNW 4 mph 7 mph 94 % 0 in 0.00 W/m2
04:34 45.9 °F 44.2 °F 29.91 in North 4 mph 8 mph 94 % 0 in 0.00 W/m2
04:39 46 °F 44.4 °F 29.91 in NNW 3 mph 8 mph 94 % 0 in 0.00 W/m2
04:44 45.9 °F 44.2 °F 29.91 in NNW 5 mph 7 mph 94 % 0 in 0.00 W/m2
04:49 45.9 °F 44.2 °F 29.91 in North 2 mph 7 mph 94 % 0 in 0.00 W/m2
04:54 45.9 °F 44.2 °F 29.91 in North 5 mph 8 mph 94 % 0 in 0.00 W/m2
04:59 46 °F 44.4 °F 29.91 in NNW 3 mph 8 mph 94 % 0 in 0.00 W/m2
05:04 46 °F 44.4 °F 29.91 in NNW 4 mph 7 mph 94 % 0 in 0.00 W/m2
05:09 46 °F 44.4 °F 29.91 in NNW 2 mph 8 mph 94 % 0 in 0.00 W/m2
05:14 45.9 °F 44.2 °F 29.91 in NNW 2 mph 5 mph 94 % 0 in 0.00 W/m2
05:19 45.9 °F 44.2 °F 29.91 in NNW 3 mph 8 mph 94 % 0 in 0.00 W/m2
05:24 45.9 °F 44.2 °F 29.91 in NNW 1 mph 2 mph 94 % 0 in 0.00 W/m2
05:29 45.9 °F 44.2 °F 29.91 in NNW 3 mph 6 mph 94 % 0 in 0.00 W/m2
05:34 45.9 °F 44.2 °F 29.91 in NNW 4 mph 7 mph 94 % 0 in 0.00 W/m2
05:39 45.9 °F 44.2 °F 29.91 in NNW 1 mph 6 mph 94 % 0 in 0.00 W/m2
05:44 45.9 °F 44.2 °F 29.91 in North 4 mph 7 mph 94 % 0 in 0.00 W/m2
05:50 45.9 °F 44.2 °F 29.90 in North 3 mph 8 mph 94 % 0 in 0.00 W/m2
05:54 45.9 °F 44.2 °F 29.90 in North 3 mph 6 mph 94 % 0 in 0.00 W/m2
05:59 45.9 °F 44.2 °F 29.90 in North 5 mph 8 mph 94 % 0 in 0.00 W/m2
06:05 45.9 °F 44 °F 29.90 in NNW 4 mph 9 mph 93 % 0 in 0.00 W/m2
06:09 45.9 °F 44 °F 29.90 in NNW 4 mph 8 mph 93 % 0 in 0.00 W/m2
06:14 45.9 °F 44.2 °F 29.90 in North 3 mph 9 mph 94 % 0 in 0.00 W/m2
06:20 45.9 °F 44.2 °F 29.90 in NNE 2 mph 6 mph 94 % 0 in 0.00 W/m2
06:24 45.9 °F 44 °F 29.90 in North 5 mph 12 mph 93 % 0 in 0.00 W/m2
06:29 45.7 °F 43.8 °F 29.90 in NNW 5 mph 9 mph 93 % 0 in 0.00 W/m2
06:34 45.7 °F 43.8 °F 29.91 in North 4 mph 9 mph 93 % 0 in 0.00 W/m2
06:40 45.7 °F 43.8 °F 29.91 in NNE 4 mph 7 mph 93 % 0 in 0.00 W/m2
06:44 45.9 °F 44 °F 29.91 in North 4 mph 8 mph 93 % 0 in 0.00 W/m2
06:49 45.9 °F 44 °F 29.91 in North 4 mph 8 mph 93 % 0 in 0.00 W/m2
06:54 45.9 °F 44 °F 29.91 in NNW 3 mph 7 mph 93 % 0 in 0.00 W/m2
06:59 45.9 °F 44 °F 29.91 in North 3 mph 7 mph 93 % 0 in 0.00 W/m2
07:04 46 °F 44.1 °F 29.91 in North 4 mph 8 mph 93 % 0 in 0.00 W/m2
07:09 46 °F 44.1 °F 29.92 in NNE 4 mph 9 mph 93 % 0 in 0.00 W/m2
07:14 45.9 °F 44 °F 29.92 in NNE 3 mph 8 mph 93 % 0 in 0.00 W/m2
07:19 46 °F 44.1 °F 29.93 in North 3 mph 6 mph 93 % 0 in 0.00 W/m2
07:24 46 °F 44.1 °F 29.93 in North 3 mph 7 mph 93 % 0 in 0.00 W/m2
07:29 46 °F 44.1 °F 29.93 in North 4 mph 9 mph 93 % 0 in 0.00 W/m2
07:34 46 °F 44.4 °F 29.93 in North 3 mph 7 mph 94 % 0 in 0.00 W/m2
07:39 46 °F 44.4 °F 29.94 in North 1 mph 5 mph 94 % 0 in 0.00 W/m2
07:44 46 °F 44.4 °F 29.94 in North 3 mph 6 mph 94 % 0 in 0.00 W/m2
07:49 46.2 °F 44.3 °F 29.94 in North 4 mph 8 mph 93 % 0 in 0.00 W/m2
07:54 46 °F 44.1 °F 29.94 in North 5 mph 10 mph 93 % 0 in 0.00 W/m2
07:59 46 °F 44.4 °F 29.94 in North 6 mph 10 mph 94 % 0.01 in 0.00 W/m2
08:04 46 °F 44.4 °F 29.95 in North 4 mph 8 mph 94 % 0.01 in 5.00 W/m2
08:09 46 °F 44.4 °F 29.95 in North 4 mph 7 mph 94 % 0.01 in 5.00 W/m2
08:14 46 °F 44.4 °F 29.95 in North 4 mph 8 mph 94 % 0.01 in 5.00 W/m2
08:19 46 °F 44.4 °F 29.95 in North 3 mph 7 mph 94 % 0.01 in 7.00 W/m2
08:24 46 °F 44.4 °F 29.95 in North 3 mph 6 mph 94 % 0.01 in 7.00 W/m2
08:29 46 °F 44.4 °F 29.95 in North 3 mph 9 mph 94 % 0.01 in 12.00 W/m2
08:34 46.2 °F 44.6 °F 29.95 in NNE 2 mph 5 mph 94 % 0.01 in 14.00 W/m2
08:39 46.2 °F 44.6 °F 29.95 in NNW 4 mph 7 mph 94 % 0.01 in 16.00 W/m2
08:44 46.2 °F 44.6 °F 29.95 in North 3 mph 7 mph 94 % 0.01 in 18.00 W/m2
08:49 46.2 °F 44.6 °F 29.95 in North 2 mph 5 mph 94 % 0.01 in 21.00 W/m2
08:54 46.2 °F 44.9 °F 29.96 in North 4 mph 7 mph 95 % 0.01 in 23.00 W/m2
08:59 46.4 °F 45 °F 29.96 in North 4 mph 7 mph 95 % 0 in 21.00 W/m2
09:04 46.4 °F 45 °F 29.96 in North 2 mph 4 mph 95 % 0 in 32.00 W/m2
Delerius-Weather
Compliments of Weather Underground - 1.25 mb

Data updates at regular intervals.